Time;durP1;ratioP1;P1;durP2;ratioP2;P2;SDS_P1;SDS_P2;PMS_P1;PMS_P2;Temp;Humidity;BMP_temperature;BMP_pressure;BME280_temperature;BME280_humidity;BME280_pressure;Samples;Min_cycle;Max_cycle;Signal;HPM_P1;HPM_P2
2022/08/25 00:01:15;;;;;;;6.68;6.07;;;;;;;23.64;59.97;101518.09;6185757;23;20008;-93
2022/08/25 00:03:42;;;;;;;7.43;6.68;;;;;;;23.58;60.67;101510.47;6185544;23;20001;-92
2022/08/25 00:06:08;;;;;;;6.72;5.88;;;;;;;23.63;61.11;101518.16;6184540;23;20013;-93
2022/08/25 00:08:36;;;;;;;6.93;6.22;;;;;;;23.53;61.35;101517.25;6186016;23;20483;-92
2022/08/25 00:11:03;;;;;;;7.88;6.57;;;;;;;23.31;61.57;101502.81;6186382;23;20233;-92
2022/08/25 00:13:29;;;;;;;6.70;6.05;;;;;;;23.47;60.29;101523.16;6185820;23;20001;-93
2022/08/25 00:15:54;;;;;;;7.00;6.30;;;;;;;23.45;60.87;101514.31;6184947;23;20027;-92
2022/08/25 00:18:20;;;;;;;7.50;6.80;;;;;;;23.32;61.25;101518.06;6212542;23;20000;-93
2022/08/25 00:20:46;;;;;;;8.07;6.95;;;;;;;23.37;61.36;101523.94;6210749;23;20004;-93
2022/08/25 00:23:11;;;;;;;6.90;6.30;;;;;;;23.23;61.32;101499.09;6212465;23;20071;-92
2022/08/25 00:25:37;;;;;;;7.43;6.03;;;;;;;23.35;60.75;101530.41;6161103;23;20202;-92
2022/08/25 00:28:02;;;;;;;6.78;6.10;;;;;;;23.28;60.70;101508.50;6212679;23;20108;-93
2022/08/25 00:30:29;;;;;;;7.47;6.22;;;;;;;23.27;61.12;101508.59;6185276;23;20004;-92
2022/08/25 00:32:54;;;;;;;6.38;5.88;;;;;;;23.18;61.07;101510.25;6186283;23;20080;-92
2022/08/25 00:35:19;;;;;;;8.05;6.30;;;;;;;23.16;61.05;101502.28;6185630;23;20036;-92
2022/08/25 00:37:45;;;;;;;7.03;6.43;;;;;;;23.10;61.82;101515.41;6185026;23;20008;-93
2022/08/25 00:40:11;;;;;;;7.82;6.88;;;;;;;23.05;60.99;101517.63;6185738;23;20161;-92
2022/08/25 00:42:37;;;;;;;10.65;7.30;;;;;;;22.88;62.54;101532.47;6160239;23;20062;-93
2022/08/25 00:45:06;;;;;;;6.90;6.20;;;;;;;22.85;61.65;101522.78;6185325;23;20032;-93
2022/08/25 00:47:31;;;;;;;6.88;6.18;;;;;;;22.79;61.97;101498.16;6185363;23;20009;-93
2022/08/25 00:50:00;;;;;;;8.20;7.45;;;;;;;22.92;62.37;101523.16;6184614;23;20053;-93
2022/08/25 00:52:35;;;;;;;7.13;6.47;;;;;;;22.84;61.11;101526.44;6185564;23;20088;-92
2022/08/25 00:55:23;;;;;;;7.22;6.53;;;;;;;22.84;60.88;101517.50;6184943;23;20020;-92
2022/08/25 00:57:54;;;;;;;9.18;7.43;;;;;;;22.60;62.85;101510.41;6186725;23;20332;-93
2022/08/25 01:00:29;;;;;;;7.68;6.97;;;;;;;22.69;61.36;101526.84;6186941;23;20000;-93
2022/08/25 01:02:56;;;;;;;9.25;7.55;;;;;;;22.60;61.74;101513.13;6187147;23;20070;-93
2022/08/25 01:05:24;;;;;;;8.32;7.60;;;;;;;22.52;62.17;101525.47;6187158;23;20004;-93
2022/08/25 01:07:55;;;;;;;8.05;6.80;;;;;;;22.33;61.77;101496.44;6213457;23;20005;-93
2022/08/25 01:10:22;;;;;;;8.53;7.73;;;;;;;22.31;62.50;101526.22;6188002;23;20004;-93
2022/08/25 01:12:49;;;;;;;9.23;8.35;;;;;;;22.26;62.62;101531.09;6187064;23;20587;-92
2022/08/25 01:15:15;;;;;;;8.18;7.53;;;;;;;22.14;62.84;101497.03;6213430;23;20341;-92
2022/08/25 01:17:51;;;;;;;8.50;7.70;;;;;;;22.23;63.18;101517.00;6187726;23;20322;-93
2022/08/25 01:20:19;;;;;;;8.55;7.65;;;;;;;22.19;63.37;101521.78;6213973;23;20013;-93
2022/08/25 01:22:46;;;;;;;8.73;7.85;;;;;;;21.98;63.93;101491.13;6162409;23;20059;-92
2022/08/25 01:25:50;;;;;;;8.15;7.45;;;;;;;22.22;62.74;101516.16;6186899;23;20040;-92
2022/08/25 01:28:16;;;;;;;9.13;8.25;;;;;;;22.13;63.67;101525.81;6187521;23;20375;-93
2022/08/25 01:30:42;;;;;;;9.02;8.13;;;;;;;22.06;63.96;101513.78;6187240;23;20471;-93
2022/08/25 01:33:10;;;;;;;9.02;8.15;;;;;;;22.02;64.06;101506.91;6187556;23;20005;-93
2022/08/25 01:35:35;;;;;;;9.40;8.43;;;;;;;22.03;64.98;101524.78;6187679;23;20159;-92
2022/08/25 01:38:03;;;;;;;9.60;8.70;;;;;;;21.89;65.26;101514.22;6187739;23;20452;-94
2022/08/25 01:40:30;;;;;;;9.57;8.68;;;;;;;21.85;65.13;101521.69;6187209;23;20092;-93
2022/08/25 01:43:04;;;;;;;8.57;7.78;;;;;;;21.92;64.58;101524.78;6213458;23;20003;-94
2022/08/25 01:45:30;;;;;;;12.13;9.20;;;;;;;21.93;63.74;101521.09;6187175;23;20062;-93
2022/08/25 01:47:55;;;;;;;10.05;9.13;;;;;;;21.90;64.25;101514.09;6187177;23;20091;-93
2022/08/25 01:50:21;;;;;;;10.68;9.13;;;;;;;21.84;64.76;101516.41;6186830;23;20048;-93
2022/08/25 01:52:55;;;;;;;9.65;8.65;;;;;;;21.81;64.00;101513.94;6188280;23;20096;-93
2022/08/25 01:55:21;;;;;;;12.15;11.07;;;;;;;21.81;64.78;101517.50;6187274;23;20436;-93
2022/08/25 01:57:48;;;;;;;10.57;9.52;;;;;;;21.78;63.69;101523.13;6187686;23;20004;-93
2022/08/25 02:00:15;;;;;;;10.30;9.30;;;;;;;21.77;63.80;101517.84;6187272;23;20503;-93
2022/08/25 02:02:42;;;;;;;10.82;9.82;;;;;;;21.66;64.03;101499.84;6188037;23;20024;-93
2022/08/25 02:05:09;;;;;;;9.40;8.50;;;;;;;21.68;63.76;101505.94;6187572;23;20004;-94
2022/08/25 02:07:37;;;;;;;10.02;9.13;;;;;;;21.72;63.42;101520.91;6187401;23;20008;-93
2022/08/25 02:10:04;;;;;;;10.57;9.57;;;;;;;21.61;62.95;101504.72;6187632;23;20004;-93
2022/08/25 02:12:32;;;;;;;10.70;9.60;;;;;;;21.61;62.88;101518.16;6187550;23;20035;-93
2022/08/25 02:15:00;;;;;;;9.25;8.43;;;;;;;21.41;62.32;101500.00;6186530;23;20004;-93
2022/08/25 02:17:27;;;;;;;12.43;9.77;;;;;;;21.45;63.86;101520.28;6213937;23;20619;-93
2022/08/25 02:19:54;;;;;;;10.82;9.73;;;;;;;21.26;63.47;101489.34;6187349;23;20027;-93
2022/08/25 02:22:20;;;;;;;11.05;10.02;;;;;;;21.38;64.17;101514.53;6186994;23;20000;-93
2022/08/25 02:24:46;;;;;;;10.18;9.30;;;;;;;21.15;62.81;101494.69;6187370;23;20076;-93
2022/08/25 02:27:12;;;;;;;13.63;10.05;;;;;;;21.33;63.57;101509.50;6187003;23;20344;-93
2022/08/25 02:29:37;;;;;;;9.90;9.00;;;;;;;21.36;63.94;101508.41;6161611;23;20008;-93
2022/08/25 02:32:03;;;;;;;12.50;10.48;;;;;;;21.37;64.00;101508.28;6187349;23;20005;-93
2022/08/25 02:34:29;;;;;;;11.57;10.45;;;;;;;21.29;64.27;101504.41;6161931;23;20017;-93
2022/08/25 02:36:54;;;;;;;10.98;9.85;;;;;;;21.37;63.73;101499.38;6187130;23;20008;-93
2022/08/25 02:39:19;;;;;;;10.55;9.43;;;;;;;21.32;63.88;101507.78;6187562;23;20216;-93
2022/08/25 02:41:55;;;;;;;11.48;8.88;;;;;;;21.24;63.26;101490.47;6162597;23;20450;-94
2022/08/25 02:44:20;;;;;;;11.18;10.05;;;;;;;21.22;64.03;101498.66;6188081;23;20428;-93
2022/08/25 02:46:45;;;;;;;11.80;10.18;;;;;;;21.17;63.74;101497.25;6214733;23;20015;-93
2022/08/25 02:49:10;;;;;;;11.20;10.10;;;;;;;21.08;64.24;101488.91;6188059;23;20012;-93
2022/08/25 02:51:36;;;;;;;11.40;10.23;;;;;;;21.16;64.16;101507.16;6188097;23;20012;-93
2022/08/25 02:54:03;;;;;;;12.82;10.95;;;;;;;21.11;64.65;101509.31;6162808;23;20400;-93
2022/08/25 02:56:30;;;;;;;11.65;10.45;;;;;;;21.01;64.55;101481.41;6187895;23;20036;-93
2022/08/25 02:58:58;;;;;;;11.85;10.20;;;;;;;21.14;63.43;101503.72;6187597;23;20452;-93
2022/08/25 03:01:23;;;;;;;11.65;10.10;;;;;;;21.06;63.79;101484.63;6187315;23;20451;-93
2022/08/25 03:03:50;;;;;;;12.18;10.38;;;;;;;21.04;63.07;101478.50;6214610;23;20001;-94
2022/08/25 03:06:21;;;;;;;10.68;9.60;;;;;;;21.15;62.28;101495.53;6213964;23;20031;-93
2022/08/25 03:09:04;;;;;;;11.43;10.43;;;;;;;21.06;62.98;101500.75;6214001;23;20363;-93
2022/08/25 03:11:30;;;;;;;11.55;10.40;;;;;;;20.94;63.63;101494.47;6187308;23;20004;-93
2022/08/25 03:13:55;;;;;;;11.25;10.15;;;;;;;20.82;64.15;101482.75;6162548;23;20004;-93
2022/08/25 03:16:21;;;;;;;10.95;9.95;;;;;;;20.76;63.95;101474.31;6186890;23;20087;-93
2022/08/25 03:18:48;;;;;;;12.57;9.45;;;;;;;20.78;63.96;101477.72;6163692;23;20039;-93
2022/08/25 03:21:15;;;;;;;11.13;10.02;;;;;;;20.74;63.59;101465.47;6187463;23;20221;-93
2022/08/25 03:23:41;;;;;;;14.98;11.45;;;;;;;20.61;64.01;101452.94;6187509;23;20004;-94
2022/08/25 03:28:51;;;;;;;12.13;10.82;;;;;;;20.70;64.17;101464.84;6213316;23;20086;-93
2022/08/25 03:31:24;;;;;;;12.52;10.35;;;;;;;20.67;63.38;101462.38;6161661;23;20367;-93
2022/08/25 03:33:50;;;;;;;11.50;10.32;;;;;;;20.76;63.80;101477.84;6187036;23;20147;-92
2022/08/25 03:36:16;;;;;;;11.48;10.43;;;;;;;20.57;63.08;101466.72;6187922;23;20040;-94
2022/08/25 03:38:42;;;;;;;11.88;10.68;;;;;;;20.41;65.06;101455.31;6214979;23;20012;-94
2022/08/25 03:41:22;;;;;;;12.57;11.13;;;;;;;20.56;63.55;101467.66;6187466;23;20332;-93
2022/08/25 03:43:49;;;;;;;13.43;11.07;;;;;;;20.52;64.25;101459.00;6188518;23;20001;-94
2022/08/25 03:46:29;;;;;;;15.35;12.23;;;;;;;20.42;64.43;101455.19;6214572;23;20004;-93
2022/08/25 03:48:56;;;;;;;13.10;11.90;;;;;;;20.29;65.24;101454.38;6162690;23;20012;-94
2022/08/25 03:51:24;;;;;;;12.68;11.38;;;;;;;20.45;65.12;101472.94;6211904;23;20005;-92
2022/08/25 03:53:51;;;;;;;12.93;11.57;;;;;;;20.27;65.30;101448.25;6186643;23;20124;-92
2022/08/25 03:56:17;;;;;;;13.90;11.10;;;;;;;20.26;64.67;101444.69;6185653;23;20036;-92
2022/08/25 03:58:46;;;;;;;12.38;10.38;;;;;;;20.45;63.56;101462.19;6213819;23;20001;-92
2022/08/25 04:01:12;;;;;;;13.18;10.48;;;;;;;20.33;64.74;101456.72;6186546;23;20004;-92
2022/08/25 04:03:37;;;;;;;12.73;11.05;;;;;;;20.31;64.95;101461.34;6213106;23;20001;-92
2022/08/25 04:06:07;;;;;;;11.95;10.85;;;;;;;20.16;64.52;101448.16;6186411;23;20075;-93
2022/08/25 04:08:33;;;;;;;12.73;10.27;;;;;;;20.22;64.03;101450.41;6187042;23;20011;-93
2022/08/25 04:10:58;;;;;;;13.27;10.57;;;;;;;20.11;63.42;101435.91;6187169;23;20005;-93
2022/08/25 04:13:24;;;;;;;11.85;10.43;;;;;;;20.13;63.53;101431.28;6213849;23;20455;-93
2022/08/25 04:15:51;;;;;;;11.48;10.27;;;;;;;20.09;63.55;101435.13;6186473;23;20012;-94
2022/08/25 04:18:16;;;;;;;11.18;10.05;;;;;;;19.99;63.44;101417.97;6187182;23;20005;-94
2022/08/25 04:20:42;;;;;;;13.52;10.75;;;;;;;20.13;63.90;101452.75;6186738;23;20003;-93
2022/08/25 04:23:09;;;;;;;15.20;10.90;;;;;;;20.00;63.74;101437.63;6186994;23;20011;-93
2022/08/25 04:25:35;;;;;;;14.65;10.70;;;;;;;20.09;64.17;101445.88;6186168;23;20084;-94
2022/08/25 04:28:00;;;;;;;13.68;11.10;;;;;;;19.99;64.48;101434.06;6213438;23;20084;-93
2022/08/25 04:30:26;;;;;;;11.82;10.63;;;;;;;20.05;64.23;101439.03;6187405;23;20204;-94
2022/08/25 04:32:52;;;;;;;13.18;10.32;;;;;;;20.09;64.11;101445.88;6163181;23;20088;-94
2022/08/25 04:35:17;;;;;;;13.70;10.95;;;;;;;19.99;64.10;101435.91;6188188;23;20009;-94
2022/08/25 04:37:43;;;;;;;11.25;10.20;;;;;;;20.10;63.86;101452.13;6214669;23;20071;-94
2022/08/25 04:40:10;;;;;;;13.80;10.43;;;;;;;20.02;63.81;101438.38;6187708;23;19997;-94
2022/08/25 04:42:35;;;;;;;12.98;10.43;;;;;;;20.01;63.84;101426.78;6163295;23;20012;-94
2022/08/25 04:45:02;;;;;;;12.77;10.90;;;;;;;20.14;64.07;101440.19;6187328;23;20433;-93
2022/08/25 04:47:28;;;;;;;14.23;9.90;;;;;;;20.06;63.63;101424.63;6164399;23;20036;-94
2022/08/25 04:49:53;;;;;;;12.95;10.63;;;;;;;20.20;64.01;101441.59;6214921;23;20001;-93
2022/08/25 04:52:19;;;;;;;18.92;11.10;;;;;;;20.20;63.72;101439.78;6214624;23;20012;-92
2022/08/25 04:54:45;;;;;;;11.95;10.65;;;;;;;20.15;63.38;101433.88;6164617;23;20087;-94
2022/08/25 04:57:10;;;;;;;14.30;10.05;;;;;;;20.01;63.12;101416.06;6189313;23;20035;-93
2022/08/25 04:59:36;;;;;;;12.95;11.50;;;;;;;20.00;63.49;101416.16;6190033;23;20491;-93
2022/08/25 05:02:03;;;;;;;12.55;10.10;;;;;;;20.00;62.71;101410.78;6189383;23;20011;-94
2022/08/25 05:04:35;;;;;;;14.20;10.90;;;;;;;20.05;63.56;101438.16;6216290;23;20349;-92
2022/08/25 05:07:03;;;;;;;13.55;11.07;;;;;;;19.98;63.35;101432.38;6215628;23;20007;-92
2022/08/25 05:09:29;;;;;;;12.18;10.27;;;;;;;19.91;64.21;101433.78;6214946;23;20036;-92
2022/08/25 05:12:04;;;;;;;13.52;9.88;;;;;;;19.86;64.19;101423.38;6188786;23;20519;-93
2022/08/25 05:14:31;;;;;;;12.43;9.95;;;;;;;19.92;64.03;101438.19;6187317;23;20017;-92
2022/08/25 05:16:56;;;;;;;12.30;9.90;;;;;;;20.02;63.97;101449.97;6188301;23;20360;-92
2022/08/25 05:19:25;;;;;;;13.55;10.13;;;;;;;20.08;63.81;101444.16;6187280;23;20019;-92
2022/08/25 05:21:52;;;;;;;11.70;9.73;;;;;;;20.04;63.15;101433.75;6187529;23;20011;-93
2022/08/25 05:24:19;;;;;;;11.57;9.95;;;;;;;20.08;63.31;101437.94;6187670;23;20028;-92
2022/08/25 05:26:45;;;;;;;11.98;9.93;;;;;;;20.15;62.32;101454.50;6187645;23;20004;-92
2022/08/25 05:29:11;;;;;;;10.95;9.52;;;;;;;20.19;62.86;101450.59;6186467;23;20045;-92
2022/08/25 05:31:36;;;;;;;10.77;9.25;;;;;;;20.25;62.65;101456.41;6187206;23;20431;-92
2022/08/25 05:34:07;;;;;;;16.02;9.50;;;;;;;20.28;61.62;101445.44;6186522;23;20001;-92
2022/08/25 05:36:33;;;;;;;13.90;9.05;;;;;;;20.44;61.00;101465.84;6187236;23;20377;-93
2022/08/25 05:38:59;;;;;;;12.40;9.30;;;;;;;20.45;61.06;101454.97;6185566;23;20078;-93
2022/08/25 05:41:29;;;;;;;11.48;9.35;;;;;;;20.66;61.29;101481.28;6212610;23;20005;-92
2022/08/25 05:43:54;;;;;;;16.00;8.80;;;;;;;20.61;63.49;101471.75;6186247;23;20540;-92
2022/08/25 05:46:21;;;;;;;12.48;8.50;;;;;;;20.51;62.52;101473.38;6186107;23;20084;-93
2022/08/25 05:48:47;;;;;;;11.50;8.30;;;;;;;20.49;61.91;101474.47;6187530;23;20004;-93
2022/08/25 05:51:13;;;;;;;12.23;8.52;;;;;;;20.50;62.13;101460.06;6186117;23;20075;-93
2022/08/25 05:53:42;;;;;;;10.25;9.25;;;;;;;20.48;63.90;101475.44;6187154;23;20015;-93
2022/08/25 05:56:09;;;;;;;12.68;9.07;;;;;;;20.38;63.74;101459.09;6186299;23;20099;-92
2022/08/25 05:58:36;;;;;;;11.30;9.30;;;;;;;20.52;63.88;101483.16;6186453;23;20008;-92
2022/08/25 06:02:39;;;;;;;10.48;8.55;;;;;;;20.56;64.20;101471.22;6186820;23;20424;-92
2022/08/25 06:03:48;;;;;;;14.93;8.93;;;;;;;20.59;65.10;101473.69;6212047;23;20340;-92
2022/08/25 06:06:14;;;;;;;10.27;8.60;;;;;;;20.68;63.08;101472.16;6185545;23;20472;-92
2022/08/25 06:08:40;;;;;;;11.98;8.82;;;;;;;20.82;62.46;101474.69;6185190;23;20007;-92
2022/08/25 06:11:06;;;;;;;11.65;8.65;;;;;;;20.95;63.02;101488.09;6185614;23;20095;-93
2022/08/25 06:13:32;;;;;;;9.90;8.57;;;;;;;20.89;63.23;101459.84;6161049;23;20035;-92
2022/08/25 06:15:59;;;;;;;11.80;8.30;;;;;;;21.02;62.19;101467.84;6185276;23;20383;-92
2022/08/25 06:18:25;;;;;;;11.55;8.45;;;;;;;21.14;60.72;101469.63;6184944;23;20064;-92
2022/08/25 06:20:51;;;;;;;8.55;7.55;;;;;;;21.29;59.32;101469.44;6185318;23;20051;-93
2022/08/25 06:23:18;;;;;;;10.27;7.95;;;;;;;21.41;59.83;101479.34;6185149;23;20008;-93
2022/08/25 06:25:51;;;;;;;11.73;7.70;;;;;;;21.45;58.74;101477.25;6185026;23;20016;-93
2022/08/25 06:28:18;;;;;;;10.18;7.78;;;;;;;21.51;58.88;101460.66;6185312;23;20513;-92
2022/08/25 06:30:43;;;;;;;11.13;7.25;;;;;;;21.64;57.79;101470.38;6183666;23;20051;-92
2022/08/25 06:33:10;;;;;;;8.95;6.30;;;;;;;21.71;57.54;101465.34;6185080;23;20332;-92
2022/08/25 06:35:35;;;;;;;11.20;7.10;;;;;;;21.88;58.43;101477.53;6183683;23;20011;-92
2022/08/25 06:38:01;;;;;;;12.90;7.18;;;;;;;21.93;56.22;101463.69;6211268;23;20005;-91
2022/08/25 06:40:26;;;;;;;9.75;7.03;;;;;;;22.08;55.18;101476.81;6184197;23;20403;-91
2022/08/25 06:42:51;;;;;;;10.27;6.97;;;;;;;22.18;54.79;101482.34;6211429;23;20004;-91
2022/08/25 06:45:17;;;;;;;8.88;6.30;;;;;;;22.33;54.17;101491.91;6210117;23;20503;-91
2022/08/25 06:47:43;;;;;;;11.00;6.97;;;;;;;22.38;55.29;101478.06;6208794;23;20054;-91
2022/08/25 06:50:09;;;;;;;8.13;6.72;;;;;;;22.49;54.21;101477.25;6184002;23;20063;-91
2022/08/25 06:52:34;;;;;;;7.63;6.55;;;;;;;22.60;54.70;101474.53;6211187;23;20001;-91
2022/08/25 06:55:00;;;;;;;13.32;6.60;;;;;;;22.83;54.16;101481.59;6182063;23;20020;-91
2022/08/25 06:57:25;;;;;;;9.15;6.38;;;;;;;22.84;55.06;101475.22;6184118;23;20433;-91
2022/08/25 06:59:51;;;;;;;9.20;6.30;;;;;;;22.95;52.27;101476.22;6210436;23;20009;-91
2022/08/25 07:02:16;;;;;;;8.55;6.47;;;;;;;23.11;54.01;101473.97;6183453;23;20448;-91
2022/08/25 07:04:41;;;;;;;11.35;6.53;;;;;;;23.25;51.45;101472.81;6208888;23;20365;-91
2022/08/25 07:07:06;;;;;;;6.90;6.20;;;;;;;23.33;52.16;101463.09;6210678;23;20020;-90
2022/08/25 07:09:32;;;;;;;8.20;6.13;;;;;;;23.48;53.81;101476.28;6208670;23;20001;-90
2022/08/25 07:11:58;;;;;;;6.90;6.07;;;;;;;23.61;51.47;101466.16;6183556;23;20594;-90
2022/08/25 07:14:23;;;;;;;9.52;6.63;;;;;;;23.78;51.17;101468.31;6182323;23;20012;-90
2022/08/25 07:16:49;;;;;;;7.38;5.80;;;;;;;23.84;50.43;101450.72;6183992;23;20080;-90
2022/08/25 07:19:14;;;;;;;8.82;5.40;;;;;;;23.97;50.44;101451.38;6210782;23;20454;-90
2022/08/25 07:21:41;;;;;;;10.48;5.18;;;;;;;24.13;49.30;101449.03;6210767;23;20009;-89
2022/08/25 07:24:10;;;;;;;6.32;5.03;;;;;;;24.38;47.41;101460.41;6210750;23;20015;-89
2022/08/25 07:26:37;;;;;;;7.78;4.88;;;;;;;24.60;49.28;101462.91;6210130;23;20028;-89
2022/08/25 07:29:20;;;;;;;10.02;4.93;;;;;;;24.68;48.86;101465.78;6184246;23;20039;-89
2022/08/25 07:31:47;;;;;;;8.48;4.93;;;;;;;24.71;46.79;101467.34;6210846;23;20004;-89
2022/08/25 07:36:57;;;;;;;9.45;5.07;;;;;;;24.70;48.79;101462.94;6210970;23;20120;-89
2022/08/25 07:39:24;;;;;;;7.22;4.68;;;;;;;24.99;48.12;101462.13;6179028;23;20012;-89
2022/08/25 07:41:49;;;;;;;5.57;4.20;;;;;;;25.06;46.76;101450.63;6183016;23;20352;-89
2022/08/25 07:44:15;;;;;;;7.70;4.32;;;;;;;25.31;46.44;101454.66;6209334;23;20000;-88
2022/08/25 07:46:40;;;;;;;7.05;4.60;;;;;;;25.54;45.26;101449.78;6183297;23;20012;-88
2022/08/25 07:49:06;;;;;;;7.05;4.93;;;;;;;25.94;45.51;101455.03;6209066;23;20004;-87
2022/08/25 07:51:32;;;;;;;11.85;4.20;;;;;;;26.23;44.88;101434.25;6211119;23;20340;-88
2022/08/25 07:53:57;;;;;;;9.20;4.30;;;;;;;26.93;41.88;101449.03;6183913;23;20009;-88
2022/08/25 07:56:22;;;;;;;7.10;4.18;;;;;;;27.42;41.66;101460.41;6182863;23;20005;-87
2022/08/25 07:58:48;;;;;;;8.70;4.05;;;;;;;27.71;40.54;101458.31;6207265;23;20036;-88
2022/08/25 08:01:16;;;;;;;4.68;4.13;;;;;;;27.88;41.17;101437.50;6208069;23;20412;-87
2022/08/25 08:03:42;;;;;;;7.20;4.15;;;;;;;28.15;39.30;101458.25;6208942;23;19997;-87
2022/08/25 08:06:09;;;;;;;8.50;4.03;;;;;;;28.30;39.33;101439.44;6210080;23;20290;-88
2022/08/25 08:08:44;;;;;;;8.52;3.78;;;;;;;28.72;38.97;101460.38;6210457;23;20683;-88
2022/08/25 08:11:29;;;;;;;6.82;4.20;;;;;;;28.95;38.54;101441.59;6209666;23;20001;-87
2022/08/25 08:13:56;;;;;;;8.13;4.00;;;;;;;29.00;37.65;101447.41;6210177;23;20001;-87
2022/08/25 08:16:25;;;;;;;7.65;4.57;;;;;;;29.24;37.63;101441.16;6208865;23;20012;-86
2022/08/25 08:18:51;;;;;;;7.55;3.88;;;;;;;29.39;38.49;101442.19;6209598;23;20310;-87
2022/08/25 08:21:19;;;;;;;7.07;3.50;;;;;;;29.95;35.10;101443.19;6182387;23;20001;-87
2022/08/25 08:23:47;;;;;;;6.50;4.00;;;;;;;30.39;34.54;101439.97;6182612;23;20424;-87
2022/08/25 08:26:12;;;;;;;11.02;4.25;;;;;;;30.77;33.45;101440.16;6180254;23;20054;-86
2022/08/25 08:28:37;;;;;;;5.20;3.42;;;;;;;30.99;34.87;101441.25;6182403;23;20009;-86
2022/08/25 08:31:03;;;;;;;7.07;3.67;;;;;;;30.77;32.97;101450.25;6181106;23;20001;-86
2022/08/25 08:33:28;;;;;;;4.43;3.38;;;;;;;31.03;32.55;101441.72;6181767;23;21171;-87
2022/08/25 08:35:58;;;;;;;8.35;3.30;;;;;;;31.57;33.45;101444.41;6182067;23;20480;-86
2022/08/25 08:38:23;;;;;;;6.95;3.65;;;;;;;31.63;31.89;101438.22;6208612;23;20005;-86
2022/08/25 08:43:43;;;;;;;5.40;3.28;;;;;;;32.33;32.34;101439.69;6209012;23;20104;-86
2022/08/25 08:46:09;;;;;;;6.13;3.20;;;;;;;32.80;33.17;101433.78;6208253;23;20005;-87
2022/08/25 08:48:56;;;;;;;7.30;3.55;;;;;;;33.11;32.53;101430.78;6209072;23;20594;-86
2022/08/25 08:51:27;;;;;;;5.50;3.30;;;;;;;33.52;30.53;101443.81;6207671;23;20076;-86
2022/08/25 08:54:09;;;;;;;5.45;3.53;;;;;;;34.08;31.44;101441.09;6136606;23;1063369;-88
2022/08/25 08:56:39;;;;;;;8.60;3.75;;;;;;;34.26;29.39;101440.56;6211383;23;20009;-87
2022/08/25 08:59:10;;;;;;;5.50;3.65;;;;;;;34.59;28.60;101432.50;6209162;23;20015;-92
2022/08/25 09:02:00;;;;;;;5.13;3.40;;;;;;;35.09;29.62;101446.00;6210009;23;20000;-86
2022/08/25 09:04:45;;;;;;;7.10;3.35;;;;;;;35.84;28.01;101432.94;6181557;23;20332;-86
2022/08/25 09:07:15;;;;;;;6.88;3.20;;;;;;;35.99;26.37;101439.91;6184972;23;20009;-86
2022/08/25 09:09:42;;;;;;;4.85;3.47;;;;;;;35.64;26.38;101436.56;6183469;23;20329;-85
2022/08/25 09:12:26;;;;;;;4.32;3.22;;;;;;;35.79;26.35;101436.31;6184221;23;20011;-85
2022/08/25 09:15:03;;;;;;;8.00;3.22;;;;;;;36.42;26.33;101442.13;6210149;23;20008;-85
2022/08/25 09:17:49;;;;;;;8.45;3.75;;;;;;;37.24;26.50;101437.69;6209758;23;20331;-87
2022/08/25 09:20:44;;;;;;;5.45;3.25;;;;;;;37.86;25.28;101443.34;6209195;23;20321;-86
2022/08/25 09:23:28;;;;;;;6.70;3.10;;;;;;;38.30;24.92;101444.19;6210792;23;20456;-87
2022/08/25 09:26:12;;;;;;;3.65;2.78;;;;;;;38.50;23.55;101442.00;6182161;23;20000;-86
2022/08/25 09:28:48;;;;;;;7.90;3.35;;;;;;;38.79;22.73;101440.34;6183822;23;20448;-87
2022/08/25 09:31:30;;;;;;;5.03;3.10;;;;;;;39.40;22.06;101432.00;6179347;23;20336;-87
2022/08/25 09:33:56;;;;;;;;;;;;;;;39.76;23.82;101439.28;6209926;23;20433;-86
2022/08/25 09:36:23;;;;;;;4.38;2.95;;;;;;;39.28;22.20;101437.53;6181015;23;19904;-86
2022/08/25 09:38:48;;;;;;;5.88;3.20;;;;;;;39.45;20.68;101434.91;6207565;23;20054;-86
2022/08/25 09:41:38;;;;;;;4.68;2.95;;;;;;;40.07;22.30;101438.06;6209084;23;20083;-87
2022/08/25 09:44:04;;;;;;;6.25;3.10;;;;;;;39.98;20.74;101426.50;6210048;23;20079;-86
2022/08/25 09:46:29;;;;;;;9.95;3.78;;;;;;;39.90;21.17;101432.41;6183231;23;20043;-86
2022/08/25 09:48:58;;;;;;;7.63;3.50;;;;;;;39.96;20.24;101433.38;6209655;23;20032;-91
2022/08/25 09:51:35;;;;;;;4.97;3.35;;;;;;;40.20;22.97;101435.06;6209319;23;20298;-86
2022/08/25 09:54:13;;;;;;;4.60;3.00;;;;;;;40.26;22.81;101430.47;6210457;23;20495;-87
2022/08/25 09:56:53;;;;;;;6.63;2.88;;;;;;;40.48;21.86;101425.94;6183702;23;20016;-87
2022/08/25 09:59:24;;;;;;;7.40;3.53;;;;;;;39.66;20.54;101420.50;6209432;23;20012;-88
2022/08/25 10:01:52;;;;;;;10.68;3.47;;;;;;;39.71;20.34;101408.72;6183556;23;20004;-88
2022/08/25 10:04:32;;;;;;;4.70;3.20;;;;;;;39.33;21.27;101403.63;6208592;23;20511;-88
2022/08/25 10:07:01;;;;;;;9.00;3.55;;;;;;;38.95;20.94;101411.22;6210835;23;20012;-88
2022/08/25 10:09:41;;;;;;;5.57;3.08;;;;;;;39.14;22.23;101409.22;6209916;23;20066;-88
2022/08/25 10:12:23;;;;;;;4.43;2.95;;;;;;;39.03;21.77;101396.19;6183387;23;20000;-89
2022/08/25 10:14:50;;;;;;;5.53;2.90;;;;;;;38.81;21.55;101393.16;6182005;23;20009;-88
2022/08/25 10:17:26;;;;;;;7.15;2.72;;;;;;;38.98;21.91;101399.66;6183692;23;20467;-89
2022/08/25 10:19:54;;;;;;;4.25;2.80;;;;;;;39.33;22.19;101385.09;6209746;23;20272;-88
2022/08/25 10:22:31;;;;;;;4.90;3.00;;;;;;;39.66;21.52;101392.84;6209918;23;20066;-88
2022/08/25 10:24:58;;;;;;;3.90;2.83;;;;;;;39.68;20.71;101390.66;6183774;23;20022;-89
2022/08/25 10:27:32;;;;;;;7.03;3.03;;;;;;;39.32;20.45;101388.94;6184311;23;20070;-87
2022/08/25 10:30:17;;;;;;;5.47;2.92;;;;;;;38.96;21.05;101385.25;6183467;23;20028;-88
2022/08/25 10:33:09;;;;;;;7.10;3.00;;;;;;;38.79;22.35;101374.00;6211299;23;20089;-88
2022/08/25 10:36:06;;;;;;;;;;;;;;;39.50;22.96;101377.78;6210447;23;20460;-88
2022/08/25 10:38:36;;;;;;;4.53;2.85;;;;;;;39.37;20.73;101379.94;6159138;23;19943;-89
2022/08/25 10:41:17;;;;;;;6.00;3.20;;;;;;;39.24;21.67;101372.69;6183362;23;20073;-89
2022/08/25 10:43:58;;;;;;;7.90;3.47;;;;;;;39.12;21.62;101358.81;6209694;23;20031;-89
2022/08/25 10:46:26;;;;;;;6.43;3.38;;;;;;;38.99;21.28;101365.44;6183009;23;20066;-87
2022/08/25 10:49:02;;;;;;;5.65;3.20;;;;;;;38.66;22.85;101365.91;6180677;23;20078;-89
2022/08/25 10:51:54;;;;;;;6.93;3.95;;;;;;;38.32;23.13;101361.91;6208651;23;20031;-88
2022/08/25 10:55:00;;;;;;;6.82;3.40;;;;;;;37.84;23.87;101357.16;6208162;23;20145;-90
2022/08/25 10:57:48;;;;;;;6.63;3.30;;;;;;;37.77;24.44;101351.69;6183691;23;20000;-89
2022/08/25 11:00:18;;;;;;;7.10;3.40;;;;;;;37.40;23.36;101341.66;6208056;23;20391;-89
2022/08/25 11:03:02;;;;;;;5.27;3.70;;;;;;;37.78;23.83;101350.63;6210021;23;20055;-89
2022/08/25 11:05:50;;;;;;;6.85;3.53;;;;;;;37.57;23.53;101351.06;6181303;23;20004;-89
2022/08/25 11:08:29;;;;;;;6.82;4.03;;;;;;;37.90;23.59;101336.91;6209182;23;20310;-89
2022/08/25 11:11:00;;;;;;;6.38;3.50;;;;;;;38.28;23.53;101344.91;6181992;23;20067;-89
2022/08/25 11:13:40;;;;;;;;;;;;;;;38.73;23.78;101336.22;6209346;23;20005;-90
2022/08/25 11:16:14;;;;;;;4.60;3.13;;;;;;;38.41;22.53;101327.34;6209019;23;19908;-89
2022/08/25 11:18:48;;;;;;;5.78;3.05;;;;;;;38.59;23.29;101334.75;6182980;23;20008;-89
2022/08/25 11:21:33;;;;;;;5.43;3.20;;;;;;;38.89;23.15;101329.19;6210449;23;20004;-89
2022/08/25 11:24:15;;;;;;;7.97;3.72;;;;;;;38.95;22.65;101321.91;6210432;23;20000;-89
2022/08/25 11:26:50;;;;;;;8.15;3.50;;;;;;;39.16;22.24;101315.75;6182663;23;20352;-88
2022/08/25 11:29:20;;;;;;;8.45;3.47;;;;;;;38.61;21.74;101309.63;6208761;23;20032;-89
2022/08/25 11:31:49;;;;;;;4.43;3.25;;;;;;;39.15;21.80;101308.56;6182970;23;20008;-89
2022/08/25 11:34:17;;;;;;;4.20;3.00;;;;;;;39.37;20.40;101306.06;6208965;23;20043;-90
2022/08/25 11:36:50;;;;;;;9.00;3.78;;;;;;;39.22;20.34;101305.69;6209837;23;20328;-88
2022/08/25 11:39:31;;;;;;;5.82;3.22;;;;;;;39.62;19.90;101310.47;6209610;23;20008;-89